This is the latest recevied weather packets stored in our database for station/object AE5EW. If no packets are shown the sender has not sent any weather packets the latest 10 day(s).
| Time | Temp. | Humidity | Pressure | Rain* | Wind** | Luminosity | Snow |
|---|---|---|---|---|---|---|---|
| 1788034403 | 28.89° C | 74% | 1019.1 hPa | 0 mm | - | - | - |
| 1788034099 | 27.78° C | 76% | 1019.2 hPa | 0 mm | - | - | - |
| 1788033798 | 28.33° C | 79% | 1019.3 hPa | 0 mm | - | - | - |
| 1788033497 | 29.44° C | 76% | 1019.3 hPa | 0 mm | - | - | - |
| 1788033193 | 29.44° C | 75% | 1019.4 hPa | 0 mm | - | - | - |
| 1788032889 | 30° C | 74% | 1019.4 hPa | 0 mm | - | - | - |
| 1788032587 | 30.56° C | 71% | 1019.3 hPa | 0 mm | - | - | - |
| 1788032283 | 31.11° C | 70% | 1019.5 hPa | 0 mm | - | - | - |
| 1788031978 | 31.11° C | 70% | 1019.6 hPa | 0 mm | - | - | - |
| 1788031674 | 31.11° C | 69% | 1019.5 hPa | 0 mm | - | - | - |
| 1788031373 | 31.11° C | 69% | 1019.6 hPa | 0 mm | - | - | - |
| 1788031068 | 31.67° C | 69% | 1019.7 hPa | 0 mm | - | - | - |
| 1788030762 | 32.22° C | 67% | 1019.7 hPa | 0 mm | - | - | - |
| 1788030461 | 31.11° C | 67% | 1019.7 hPa | 0 mm | - | - | - |
| 1788030157 | 31.67° C | 66% | 1019.7 hPa | 0 mm | - | - | - |
| 1788029857 | 30.56° C | 68% | 1019.7 hPa | 0 mm | - | - | - |
| 1788029552 | 31.11° C | 69% | 1019.9 hPa | 0 mm | - | - | - |
| 1788029251 | 31.11° C | 71% | 1020 hPa | 0 mm | - | - | - |
| 1788028946 | 31.67° C | 66% | 1019.8 hPa | 0 mm | - | - | - |
| 1788028646 | 31.67° C | 68% | 1020 hPa | 0 mm | - | - | - |
| 1788028341 | 31.11° C | 67% | 1020.1 hPa | 0 mm | - | - | - |
| 1788028036 | 30.56° C | 70% | 1020 hPa | 0 mm | - | - | - |
| 1788027732 | 30.56° C | 70% | 1020.1 hPa | 0 mm | - | - | - |
| 1788027431 | 30.56° C | 67% | 1020 hPa | 0 mm | - | - | - |
| 1788027126 | 30.56° C | 68% | 1020 hPa | 0 mm | - | - | - |
* Rain latest hour (hover to see other rain measurements)
** Current wind speed in m/s (hover to see current wind gust speed)